Time;durP1;ratioP1;P1;durP2;ratioP2;P2;SDS_P1;SDS_P2;PMS_P1;PMS_P2;Temp;Humidity;BMP_temperature;BMP_pressure;BME280_temperature;BME280_humidity;BME280_pressure;Samples;Min_cycle;Max_cycle;Signal;HPM_P1;HPM_P2
2022/05/24 00:00:29;;;;;;;8.27;3.47;;;13.70;99.90;;;;;;5069204;28;20049;-83
2022/05/24 00:02:55;;;;;;;7.30;4.43;;;13.70;99.90;;;;;;5086522;28;20040;-84
2022/05/24 00:05:22;;;;;;;8.75;4.60;;;13.70;99.90;;;;;;5085758;28;20417;-83
2022/05/24 00:07:48;;;;;;;8.48;4.85;;;13.70;99.90;;;;;;5086506;28;20096;-84
2022/05/24 00:10:18;;;;;;;7.05;4.38;;;13.70;99.90;;;;;;5085677;28;20413;-84
2022/05/24 00:12:43;;;;;;;8.52;5.00;;;13.70;99.90;;;;;;5086216;28;20047;-84
2022/05/24 00:15:27;;;;;;;6.65;4.60;;;13.70;99.90;;;;;;5085919;28;20465;-86
2022/05/24 00:17:55;;;;;;;8.35;5.03;;;13.70;99.90;;;;;;5085161;28;20048;-85
2022/05/24 00:20:23;;;;;;;6.63;5.13;;;13.60;99.90;;;;;;5086106;28;20052;-85
2022/05/24 00:22:48;;;;;;;12.25;4.90;;;13.60;99.90;;;;;;5068219;28;20044;-85
2022/05/24 00:25:14;;;;;;;5.70;4.70;;;13.50;99.90;;;;;;5085642;28;20044;-84
2022/05/24 00:27:40;;;;;;;10.80;5.00;;;13.50;99.90;;;;;;5068778;28;20036;-84
2022/05/24 00:30:07;;;;;;;6.43;4.68;;;14.60;99.90;;;;;;5069252;28;20155;-84
2022/05/24 00:32:32;;;;;;;7.90;4.78;;;13.40;99.90;;;;;;5068867;28;20465;-85
2022/05/24 00:34:58;;;;;;;9.23;5.10;;;13.40;99.90;;;;;;5084890;28;20076;-84
2022/05/24 00:37:27;;;;;;;7.20;4.30;;;13.30;99.90;;;;;;5085601;28;20444;-84
2022/05/24 00:39:52;;;;;;;10.38;4.60;;;14.30;99.90;;;;;;5084939;28;20040;-84
2022/05/24 00:42:26;;;;;;;12.68;4.68;;;13.50;99.90;;;;;;5068604;28;20044;-84
2022/05/24 00:45:01;;;;;;;7.43;5.38;;;13.30;99.90;;;;;;5085688;28;20054;-84
2022/05/24 00:47:43;;;;;;;6.82;4.93;;;13.30;99.90;;;;;;5085828;28;20445;-85
2022/05/24 00:50:23;;;;;;;11.18;5.18;;;13.30;99.90;;;;;;5085152;28;20056;-85
2022/05/24 00:52:58;;;;;;;7.75;4.32;;;13.30;99.90;;;;;;5085361;28;20415;-84
2022/05/24 00:55:25;;;;;;;13.23;4.55;;;13.30;99.90;;;;;;5068551;28;20044;-84
2022/05/24 00:58:11;;;;;;;8.95;4.72;;;13.30;99.90;;;;;;5085304;28;20044;-85
2022/05/24 01:00:37;;;;;;;6.40;4.45;;;13.30;99.90;;;;;;5084683;28;20086;-84
2022/05/24 01:03:03;;;;;;;11.38;4.88;;;13.50;99.90;;;;;;5052418;28;20036;-84
2022/05/24 01:05:31;;;;;;;8.95;4.40;;;13.30;99.90;;;;;;5051371;28;20040;-85
2022/05/24 01:07:57;;;;;;;7.25;3.25;;;13.20;99.90;;;;;;5068542;28;20051;-85
2022/05/24 01:10:35;;;;;;;10.57;3.35;;;13.20;99.90;;;;;;5085301;28;20058;-84
2022/05/24 01:13:10;;;;;;;8.93;3.70;;;13.20;99.90;;;;;;5084902;28;20083;-85
2022/05/24 01:15:36;;;;;;;5.50;3.42;;;13.10;99.90;;;;;;5085509;28;20048;-85
2022/05/24 01:18:03;;;;;;;5.97;3.30;;;13.10;99.90;;;;;;5084738;28;20052;-85
2022/05/24 01:20:29;;;;;;;4.65;3.28;;;13.00;99.90;;;;;;5085695;28;20044;-84
2022/05/24 01:23:07;;;;;;;8.07;2.78;;;13.00;99.90;;;;;;5084843;28;20087;-85
2022/05/24 01:25:53;;;;;;;6.30;3.10;;;12.90;99.90;;;;;;5084955;28;20052;-85
2022/05/24 01:28:32;;;;;;;4.47;2.92;;;12.80;99.90;;;;;;5085368;28;20048;-85
2022/05/24 01:30:59;;;;;;;5.85;3.38;;;12.70;99.90;;;;;;5084691;28;20486;-85
2022/05/24 01:36:10;;;;;;;5.25;3.47;;;12.60;99.90;;;;;;5086235;28;20048;-84
2022/05/24 01:38:40;;;;;;;6.72;3.20;;;12.50;99.90;;;;;;5068285;28;20123;-84
2022/05/24 01:41:07;;;;;;;6.68;3.67;;;12.50;99.90;;;;;;5085258;28;20044;-85
2022/05/24 01:43:33;;;;;;;4.70;3.38;;;12.50;99.90;;;;;;5084660;28;20120;-85
2022/05/24 01:46:05;;;;;;;6.97;4.03;;;12.50;99.90;;;;;;5068777;28;20917;-85
2022/05/24 01:48:36;;;;;;;6.70;3.45;;;12.40;99.90;;;;;;5086087;28;20386;-84
2022/05/24 01:51:04;;;;;;;11.38;4.80;;;12.40;99.90;;;;;;5089008;28;20040;-83
2022/05/24 01:53:58;;;;;;;6.50;3.95;;;12.30;99.90;;;;;;5071737;28;20482;-84
2022/05/24 01:56:57;;;;;;;8.25;4.13;;;12.70;99.90;;;;;;5086994;28;20521;-84
2022/05/24 01:59:25;;;;;;;7.93;4.53;;;12.30;99.90;;;;;;5088671;28;21109;-84
2022/05/24 02:01:54;;;;;;;6.38;3.95;;;12.20;99.90;;;;;;5071500;28;20036;-84
2022/05/24 02:04:22;;;;;;;6.45;4.07;;;12.20;99.90;;;;;;5088146;28;20083;-85
2022/05/24 02:07:08;;;;;;;6.43;4.25;;;12.20;99.90;;;;;;5089066;28;20047;-85
2022/05/24 02:09:38;;;;;;;8.90;4.75;;;12.20;99.90;;;;;;5088319;28;20174;-85
2022/05/24 02:12:16;;;;;;;8.18;4.70;;;12.20;99.90;;;;;;5071975;28;20080;-86
2022/05/24 02:14:47;;;;;;;8.85;4.75;;;12.20;99.90;;;;;;5071679;28;20051;-86
2022/05/24 02:17:22;;;;;;;7.47;5.00;;;12.20;99.90;;;;;;5071730;28;20047;-85
2022/05/24 02:19:52;;;;;;;8.10;5.38;;;12.20;99.90;;;;;;5090779;28;20115;-85
2022/05/24 02:22:22;;;;;;;7.63;5.35;;;12.20;99.90;;;;;;5087796;28;20089;-85
2022/05/24 02:25:13;;;;;;;8.90;4.95;;;12.80;99.90;;;;;;5088237;28;20101;-85
2022/05/24 02:27:45;;;;;;;4.97;4.28;;;12.30;99.90;;;;;;5088524;28;20040;-85
2022/05/24 02:30:18;;;;;;;10.40;5.00;;;12.30;99.90;;;;;;5088054;28;20421;-85
2022/05/24 02:32:44;;;;;;;8.27;4.97;;;12.30;99.90;;;;;;5088781;28;20121;-85
2022/05/24 02:35:10;;;;;;;8.40;5.35;;;12.40;99.90;;;;;;5089193;28;20073;-85
2022/05/24 02:37:36;;;;;;;6.15;5.25;;;12.40;99.90;;;;;;5087849;28;20408;-85
2022/05/24 02:42:48;;;;;;;8.98;5.57;;;12.40;99.90;;;;;;5087484;28;20055;-84
2022/05/24 02:45:13;;;;;;;8.88;6.18;;;12.50;99.90;;;;;;5089012;28;20052;-85
2022/05/24 02:47:40;;;;;;;9.05;5.63;;;12.50;99.90;;;;;;5088465;28;20044;-85
2022/05/24 02:50:09;;;;;;;8.40;5.60;;;12.50;99.90;;;;;;5088201;28;20101;-85
2022/05/24 02:52:36;;;;;;;9.00;6.35;;;12.60;99.90;;;;;;5069906;28;20040;-85
2022/05/24 02:55:04;;;;;;;10.02;6.03;;;12.70;99.90;;;;;;5070920;28;20441;-86
2022/05/24 02:57:30;;;;;;;10.98;5.93;;;12.70;99.90;;;;;;5087728;28;20502;-87
2022/05/24 02:59:56;;;;;;;8.60;5.60;;;12.60;99.90;;;;;;5070903;28;20052;-86
2022/05/24 03:02:21;;;;;;;10.07;5.63;;;12.80;99.90;;;;;;5087490;28;20074;-85
2022/05/24 03:04:47;;;;;;;13.32;6.13;;;12.70;99.90;;;;;;5086385;28;20051;-87
2022/05/24 03:09:57;;;;;;;7.70;6.15;;;13.80;99.90;;;;;;5072361;28;20495;-85
2022/05/24 03:15:07;;;;;;;9.57;6.03;;;12.80;99.90;;;;;;5087589;28;20574;-85
2022/05/24 03:17:33;;;;;;;9.00;6.20;;;12.80;99.90;;;;;;5086339;28;20043;-85
2022/05/24 03:19:59;;;;;;;10.80;6.85;;;12.80;99.90;;;;;;5070935;28;20176;-87
2022/05/24 03:22:24;;;;;;;8.38;6.47;;;12.80;99.90;;;;;;5052985;28;20063;-83
2022/05/24 03:24:50;;;;;;;13.45;7.40;;;12.90;99.90;;;;;;5088554;28;20071;-91
2022/05/24 03:27:16;;;;;;;16.40;8.07;;;12.90;99.90;;;;;;5069637;28;20040;-88
2022/05/24 03:29:45;;;;;;;11.90;7.43;;;13.90;99.90;;;;;;5069994;28;20044;-87
2022/05/24 03:32:13;;;;;;;10.70;7.53;;;12.90;99.90;;;;;;5087150;28;20044;-87
2022/05/24 03:34:39;;;;;;;15.23;8.07;;;13.00;99.90;;;;;;5086246;28;20432;-87
2022/05/24 03:37:06;;;;;;;19.30;7.35;;;13.00;99.90;;;;;;5070569;28;20051;-88
2022/05/24 03:39:32;;;;;;;13.13;8.93;;;13.10;99.90;;;;;;5069559;28;20050;-88
2022/05/24 03:41:58;;;;;;;14.90;8.57;;;13.10;99.90;;;;;;5069403;28;20155;-87
2022/05/24 03:44:24;;;;;;;14.88;9.10;;;13.10;99.90;;;;;;5086255;28;20123;-87
2022/05/24 03:46:51;;;;;;;12.45;9.88;;;13.10;99.90;;;;;;5070277;28;20067;-88
2022/05/24 03:49:16;;;;;;;14.35;10.30;;;13.20;99.90;;;;;;5086370;28;20036;-88
2022/05/24 03:51:42;;;;;;;12.98;9.25;;;13.20;99.90;;;;;;5086030;28;20094;-85
2022/05/24 03:54:08;;;;;;;13.35;9.48;;;13.20;99.90;;;;;;5053405;28;20052;-83
2022/05/24 03:56:34;;;;;;;13.05;10.13;;;13.20;99.90;;;;;;5068464;28;20040;-83
2022/05/24 03:59:00;;;;;;;16.02;10.52;;;13.30;99.90;;;;;;5086645;28;20466;-83
2022/05/24 04:01:26;;;;;;;14.32;11.25;;;13.30;99.90;;;;;;5068918;28;20044;-83
2022/05/24 04:03:52;;;;;;;17.75;11.82;;;13.40;99.90;;;;;;5069609;28;20055;-84
2022/05/24 04:06:18;;;;;;;13.90;10.27;;;13.30;99.90;;;;;;5086240;28;20058;-84
2022/05/24 04:08:45;;;;;;;17.25;11.65;;;13.30;99.90;;;;;;5086014;28;20052;-85
2022/05/24 04:11:12;;;;;;;18.17;12.10;;;13.30;99.90;;;;;;5087043;28;20047;-85
2022/05/24 04:13:40;;;;;;;15.13;11.52;;;13.40;99.90;;;;;;5068651;28;20044;-86
2022/05/24 04:16:07;;;;;;;15.88;10.77;;;13.60;99.90;;;;;;5053259;28;20546;-87
2022/05/24 04:18:34;;;;;;;19.10;12.65;;;13.40;99.90;;;;;;5069310;28;20048;-86
2022/05/24 04:20:59;;;;;;;20.17;12.30;;;13.40;99.90;;;;;;5086281;28;20048;-84
2022/05/24 04:23:25;;;;;;;21.13;12.70;;;13.40;99.90;;;;;;5068807;28;20055;-83
2022/05/24 04:25:53;;;;;;;21.70;12.00;;;13.50;99.90;;;;;;5068409;28;20066;-85
2022/05/24 04:28:19;;;;;;;17.17;12.30;;;13.50;99.90;;;;;;5069310;28;20048;-84
2022/05/24 04:30:50;;;;;;;19.92;12.32;;;13.50;99.90;;;;;;5051388;28;20074;-85
2022/05/24 04:33:17;;;;;;;18.55;12.80;;;13.50;99.90;;;;;;5086152;28;20490;-83
2022/05/24 04:35:46;;;;;;;16.85;12.27;;;13.60;99.90;;;;;;5086181;28;20044;-84
2022/05/24 04:38:12;;;;;;;19.30;12.70;;;13.60;99.90;;;;;;5086025;28;20044;-83
2022/05/24 04:43:22;;;;;;;18.65;12.25;;;13.60;99.90;;;;;;5084687;28;20067;-83
2022/05/24 04:45:53;;;;;;;17.05;10.95;;;13.70;99.90;;;;;;5069387;28;20048;-84
2022/05/24 04:48:19;;;;;;;14.10;11.02;;;13.70;99.90;;;;;;5085252;28;20069;-82
2022/05/24 04:50:53;;;;;;;15.75;10.35;;;13.70;99.90;;;;;;5085700;28;20109;-82
2022/05/24 04:53:19;;;;;;;14.63;10.55;;;13.80;99.90;;;;;;5087094;28;20449;-83
2022/05/24 04:55:49;;;;;;;21.63;10.63;;;13.80;99.90;;;;;;5085101;28;20395;-83
2022/05/24 04:58:16;;;;;;;16.88;10.20;;;13.80;99.90;;;;;;5086114;28;20036;-83
2022/05/24 05:00:42;;;;;;;15.98;10.00;;;13.80;99.90;;;;;;5086415;28;20043;-83
2022/05/24 05:03:10;;;;;;;16.17;9.18;;;13.90;99.90;;;;;;5087026;28;20301;-83
2022/05/24 05:05:35;;;;;;;14.00;8.48;;;13.90;99.90;;;;;;5084841;28;20043;-84
2022/05/24 05:08:01;;;;;;;10.57;8.05;;;13.90;99.90;;;;;;5085827;28;20138;-85
2022/05/24 05:10:30;;;;;;;10.25;8.15;;;13.90;99.90;;;;;;5068406;28;20040;-83
2022/05/24 05:12:56;;;;;;;11.40;8.73;;;13.90;99.90;;;;;;5085017;28;20131;-84
2022/05/24 05:15:22;;;;;;;13.82;9.32;;;14.00;99.90;;;;;;5085312;28;20082;-84
2022/05/24 05:17:47;;;;;;;13.27;8.52;;;14.10;99.90;;;;;;5084629;28;20444;-85
2022/05/24 05:20:14;;;;;;;10.82;8.55;;;14.40;99.90;;;;;;5085491;28;20094;-85
2022/05/24 05:22:40;;;;;;;13.73;8.15;;;14.10;99.90;;;;;;5085440;28;20048;-85
2022/05/24 05:25:07;;;;;;;14.50;8.32;;;14.10;99.90;;;;;;5088657;28;20128;-85
2022/05/24 05:27:33;;;;;;;16.20;8.70;;;14.20;99.90;;;;;;5089192;28;20157;-85
2022/05/24 05:32:45;;;;;;;10.35;7.72;;;14.20;99.90;;;;;;5075755;28;20047;-85
2022/05/24 05:35:13;;;;;;;12.95;7.68;;;14.20;99.90;;;;;;5056303;28;20059;-85
2022/05/24 05:37:39;;;;;;;10.32;8.73;;;14.30;99.90;;;;;;5089261;28;20047;-85
2022/05/24 05:40:05;;;;;;;12.38;7.75;;;14.20;99.90;;;;;;5072171;28;20048;-85
2022/05/24 05:42:32;;;;;;;14.77;8.07;;;14.40;99.90;;;;;;5089084;28;20130;-85
2022/05/24 05:44:57;;;;;;;13.57;7.93;;;14.40;99.90;;;;;;5089054;28;20121;-84
2022/05/24 05:47:23;;;;;;;18.35;7.78;;;14.40;99.90;;;;;;5071216;28;20076;-86
2022/05/24 05:49:49;;;;;;;11.05;7.05;;;14.30;99.90;;;;;;5089405;28;20072;-83
2022/05/24 05:52:15;;;;;;;13.95;7.93;;;15.10;99.90;;;;;;5088692;28;20052;-83
2022/05/24 05:54:40;;;;;;;16.20;8.63;;;14.30;99.90;;;;;;5089309;28;20047;-84
2022/05/24 05:57:07;;;;;;;14.50;8.57;;;14.30;99.90;;;;;;5054553;28;20548;-84
2022/05/24 05:59:33;;;;;;;12.23;8.05;;;14.30;99.90;;;;;;5089032;28;20069;-87
2022/05/24 06:01:58;;;;;;;14.70;7.93;;;14.20;99.90;;;;;;5071562;28;20044;-85
2022/05/24 06:04:25;;;;;;;13.38;7.63;;;14.20;99.90;;;;;;5088297;28;20044;-84
2022/05/24 06:06:52;;;;;;;12.43;8.02;;;14.20;99.90;;;;;;5072203;28;20051;-82
2022/05/24 06:09:18;;;;;;;18.08;8.45;;;14.10;99.90;;;;;;5087857;28;20048;-83
2022/05/24 06:11:47;;;;;;;13.27;8.95;;;14.10;99.90;;;;;;5088183;28;20100;-84
2022/05/24 06:14:12;;;;;;;14.73;8.60;;;14.00;99.90;;;;;;5087822;28;20059;-83
2022/05/24 06:16:38;;;;;;;13.10;9.13;;;14.00;99.90;;;;;;5071802;28;20044;-84
2022/05/24 06:19:05;;;;;;;12.93;8.07;;;13.90;99.90;;;;;;5090047;28;20165;-84
2022/05/24 06:21:33;;;;;;;14.80;9.10;;;13.90;99.90;;;;;;5087907;28;20074;-84
2022/05/24 06:24:00;;;;;;;12.07;8.82;;;13.90;99.90;;;;;;5071465;28;20052;-85
2022/05/24 06:26:27;;;;;;;16.20;8.60;;;13.90;99.90;;;;;;5070681;28;20506;-84
2022/05/24 06:28:53;;;;;;;18.42;8.38;;;14.00;99.90;;;;;;5088595;28;20501;-85
2022/05/24 06:31:18;;;;;;;13.02;8.07;;;14.00;99.90;;;;;;5071374;28;20130;-85
2022/05/24 06:33:44;;;;;;;12.90;8.73;;;13.80;99.90;;;;;;5087757;28;20131;-86
2022/05/24 06:36:10;;;;;;;15.52;8.13;;;13.80;99.90;;;;;;5088014;28;20039;-84
2022/05/24 06:38:37;;;;;;;10.80;7.85;;;13.80;99.90;;;;;;5087472;28;20040;-86
2022/05/24 06:41:04;;;;;;;12.40;8.13;;;14.90;99.90;;;;;;5088702;28;20522;-85
2022/05/24 06:43:31;;;;;;;10.15;7.25;;;13.70;99.90;;;;;;5087748;28;20060;-87
2022/05/24 06:45:56;;;;;;;10.02;7.28;;;13.80;99.90;;;;;;5071129;28;20048;-86
2022/05/24 06:48:22;;;;;;;9.63;6.70;;;13.80;99.90;;;;;;5087926;28;20062;-85
2022/05/24 06:50:48;;;;;;;8.30;6.50;;;14.40;99.90;;;;;;5072781;28;20078;-85
2022/05/24 06:53:13;;;;;;;11.15;7.18;;;13.90;99.90;;;;;;5091038;28;20487;-85
2022/05/24 06:55:39;;;;;;;14.35;7.85;;;13.90;99.90;;;;;;5090039;28;20056;-84
2022/05/24 06:58:06;;;;;;;9.23;6.97;;;14.30;99.90;;;;;;5091010;28;20048;-85
2022/05/24 07:03:16;;;;;;;12.68;7.40;;;14.00;99.90;;;;;;5091835;28;20084;-81
2022/05/24 07:05:44;;;;;;;9.82;6.40;;;14.10;99.90;;;;;;5089943;28;20111;-82
2022/05/24 07:08:10;;;;;;;8.43;6.55;;;14.00;99.90;;;;;;5075000;28;20096;-85
2022/05/24 07:10:37;;;;;;;10.77;7.25;;;14.00;99.90;;;;;;5091849;28;20405;-85
2022/05/24 07:13:06;;;;;;;10.25;6.75;;;14.10;99.90;;;;;;5093686;28;20039;-84
2022/05/24 07:15:33;;;;;;;12.40;6.95;;;14.20;99.90;;;;;;5095321;28;20058;-84
2022/05/24 07:17:59;;;;;;;15.00;8.18;;;14.40;99.90;;;;;;5094725;28;20406;-85
2022/05/24 07:20:26;;;;;;;13.48;9.43;;;14.60;99.90;;;;;;5094831;28;20127;-82
2022/05/24 07:22:54;;;;;;;11.80;8.25;;;14.70;99.90;;;;;;5072891;28;20051;-82
2022/05/24 07:25:21;;;;;;;12.50;8.77;;;14.80;99.90;;;;;;5091035;28;20058;-83
2022/05/24 07:27:50;;;;;;;11.73;6.97;;;15.00;99.90;;;;;;5090817;28;20102;-81
2022/05/24 07:30:15;;;;;;;13.77;5.40;;;15.20;99.90;;;;;;5090990;28;20044;-85
2022/05/24 07:32:42;;;;;;;14.27;5.80;;;15.20;99.90;;;;;;5087939;28;20534;-84
2022/05/24 07:35:09;;;;;;;9.60;5.30;;;15.20;99.90;;;;;;5089146;28;20068;-84
2022/05/24 07:37:34;;;;;;;7.20;5.03;;;15.10;99.90;;;;;;5078342;28;20036;-86
2022/05/24 07:48:12;;;;;;;5.50;3.30;;;14.90;99.90;;;;;;5087059;28;20070;-83
2022/05/24 07:50:39;;;;;;;8.85;3.22;;;14.80;99.90;;;;;;5086986;28;20051;-83
2022/05/24 07:53:05;;;;;;;13.10;3.67;;;14.70;99.90;;;;;;5087509;28;20044;-86
2022/05/24 07:55:31;;;;;;;7.30;3.17;;;14.70;99.90;;;;;;5071498;28;20048;-91
2022/05/24 07:57:58;;;;;;;7.38;2.88;;;14.60;99.90;;;;;;5091227;28;20475;-88
2022/05/24 08:00:25;;;;;;;10.07;2.72;;;14.60;99.90;;;;;;5087625;28;20043;-85
2022/05/24 08:02:52;;;;;;;6.32;2.78;;;14.50;99.90;;;;;;5086329;28;20122;-86
2022/05/24 08:05:19;;;;;;;4.72;2.95;;;14.50;99.90;;;;;;5069074;28;20495;-89
2022/05/24 08:07:49;;;;;;;6.72;3.08;;;14.50;99.90;;;;;;5087672;28;20502;-88
2022/05/24 08:10:15;;;;;;;7.38;3.17;;;14.40;99.90;;;;;;5087674;28;20044;-90
2022/05/24 08:12:41;;;;;;;8.70;3.05;;;14.40;99.90;;;;;;5089180;28;20043;-89
2022/05/24 08:15:08;;;;;;;8.30;3.60;;;14.30;99.90;;;;;;5089129;28;20162;-88
2022/05/24 08:17:34;;;;;;;7.20;3.70;;;14.20;99.90;;;;;;5087736;28;20122;-87
2022/05/24 08:20:00;;;;;;;7.55;3.30;;;14.20;99.90;;;;;;5087548;28;20127;-87
2022/05/24 08:22:26;;;;;;;7.45;3.70;;;14.10;99.90;;;;;;5086979;28;20043;-90
2022/05/24 08:24:52;;;;;;;7.97;3.85;;;14.00;99.90;;;;;;5087983;28;20074;-92
2022/05/24 08:27:18;;;;;;;5.30;3.35;;;14.00;99.90;;;;;;5086388;28;20494;-85
2022/05/24 08:29:44;;;;;;;8.75;3.70;;;14.00;99.90;;;;;;5086063;28;20402;-84
2022/05/24 08:32:11;;;;;;;11.13;3.95;;;14.00;99.90;;;;;;5086299;28;20135;-86
2022/05/24 08:34:38;;;;;;;6.18;3.55;;;14.10;99.90;;;;;;5086000;28;20048;-86
2022/05/24 08:37:05;;;;;;;9.70;4.03;;;14.00;99.90;;;;;;5095539;28;20078;-95
2022/05/24 08:39:31;;;;;;;7.28;3.67;;;14.30;99.90;;;;;;5097923;28;20054;-96
2022/05/24 08:42:26;;;;;;;12.68;5.40;;;14.00;99.90;;;;;;5081733;28;20045;-91
2022/05/24 08:48:23;;;;;;;11.40;3.90;;;14.10;99.90;;;;;;5097646;28;20264;-87
2022/05/24 08:50:59;;;;;;;11.27;4.03;;;13.90;99.90;;;;;;5080636;28;20051;-94
2022/05/24 08:53:47;;;;;;;9.18;4.07;;;13.90;99.90;;;;;;5098829;28;20044;-92
2022/05/24 08:56:28;;;;;;;7.90;4.25;;;14.00;99.90;;;;;;5102673;28;20056;-95
2022/05/24 08:59:32;;;;;;;12.18;4.68;;;14.00;99.90;;;;;;5090697;28;20047;-96
2022/05/24 09:01:59;;;;;;;11.68;5.50;;;14.00;99.90;;;;;;5095886;28;20109;-89
2022/05/24 09:04:26;;;;;;;8.80;5.45;;;14.10;99.90;;;;;;5075774;28;20043;-88
2022/05/24 09:06:56;;;;;;;11.68;5.60;;;14.00;99.90;;;;;;5079871;28;20510;-91
2022/05/24 09:10:00;;;;;;;9.82;5.72;;;14.00;99.90;;;;;;5091948;28;20063;-88
2022/05/24 09:12:59;;;;;;;7.25;5.10;;;14.10;99.90;;;;;;5074104;28;20337;-89
2022/05/24 09:15:50;;;;;;;9.02;4.82;;;14.20;99.90;;;;;;5091634;28;20048;-88
2022/05/24 09:18:29;;;;;;;7.88;4.15;;;14.30;99.90;;;;;;5073683;28;20044;-91
2022/05/24 09:20:55;;;;;;;10.30;5.30;;;14.30;99.90;;;;;;5090749;28;20055;-88
2022/05/24 09:23:39;;;;;;;9.30;5.47;;;14.30;99.90;;;;;;5073571;28;20048;-89
2022/05/24 09:26:06;;;;;;;8.85;5.43;;;14.40;99.90;;;;;;5089711;28;20056;-90
2022/05/24 09:28:59;;;;;;;12.68;6.13;;;14.50;99.90;;;;;;5090760;28;20044;-88
2022/05/24 09:31:31;;;;;;;9.70;5.00;;;14.60;99.90;;;;;;5091043;28;20098;-90
2022/05/24 09:34:16;;;;;;;5.60;3.60;;;14.50;99.90;;;;;;5072747;28;20048;-88
2022/05/24 09:36:56;;;;;;;7.00;3.10;;;14.30;99.90;;;;;;5089675;28;20531;-88
2022/05/24 09:39:26;;;;;;;5.20;2.55;;;14.10;99.90;;;;;;5089269;28;20040;-88
2022/05/24 09:41:58;;;;;;;6.10;1.88;;;14.00;99.90;;;;;;5072891;28;20516;-88
2022/05/24 10:01:09;;;;;;;2.67;1.02;;;14.50;99.90;;;;;;5129577;27;20730;-87
2022/05/24 10:03:44;;;;;;;3.15;1.15;;;14.70;99.90;;;;;;5126771;28;20097;-88
2022/05/24 10:06:19;;;;;;;1.73;1.00;;;14.80;99.90;;;;;;5127808;27;20043;-88
2022/05/24 10:08:50;;;;;;;1.98;1.10;;;14.90;99.90;;;;;;5109356;28;20050;-89
2022/05/24 10:11:33;;;;;;;2.95;1.20;;;14.90;99.90;;;;;;5132191;28;20046;-88
2022/05/24 10:14:20;;;;;;;4.15;1.30;;;14.90;99.90;;;;;;5132367;28;20441;-88
2022/05/24 10:16:55;;;;;;;2.67;1.27;;;15.00;99.90;;;;;;5130102;28;20044;-88
2022/05/24 10:19:39;;;;;;;2.67;1.27;;;15.20;99.90;;;;;;5126268;28;20065;-89
2022/05/24 10:22:20;;;;;;;2.38;1.20;;;15.30;99.90;;;;;;5143528;27;20487;-88
2022/05/24 10:24:54;;;;;;;1.90;1.25;;;15.50;99.90;;;;;;5128020;27;20043;-88
2022/05/24 10:27:43;;;;;;;4.22;1.40;;;15.60;99.90;;;;;;5109206;28;20051;-85
2022/05/24 10:30:20;;;;;;;1.92;1.23;;;15.50;99.90;;;;;;5127562;28;20501;-88
2022/05/24 10:39:19;;;;;;;1.67;0.95;;;15.50;99.90;;;;;;5125727;28;20471;-89
2022/05/24 10:42:06;;;;;;;4.28;1.20;;;15.50;99.90;;;;;;5090463;28;20073;-92
2022/05/24 10:44:49;;;;;;;3.65;1.38;;;15.40;99.90;;;;;;5109231;28;20096;-91
2022/05/24 10:47:27;;;;;;;2.15;1.23;;;15.20;99.90;;;;;;5109317;28;20044;-93
2022/05/24 10:49:59;;;;;;;3.67;1.23;;;14.90;99.90;;;;;;5108626;28;20042;-89
2022/05/24 10:52:34;;;;;;;5.68;1.38;;;15.20;99.90;;;;;;5108222;28;20112;-89
2022/05/24 10:55:06;;;;;;;1.73;1.25;;;14.60;99.90;;;;;;5109188;28;20036;-89
2022/05/24 10:57:39;;;;;;;4.00;1.10;;;14.60;99.90;;;;;;5126102;28;20100;-88
2022/05/24 11:00:12;;;;;;;3.97;1.30;;;15.00;99.90;;;;;;5104745;28;20114;-87
2022/05/24 11:03:08;;;;;;;3.63;1.58;;;14.90;99.90;;;;;;5111775;28;20083;-89
2022/05/24 11:05:46;;;;;;;4.18;1.30;;;15.30;99.90;;;;;;5095313;28;20069;-89
2022/05/24 11:08:24;;;;;;;5.45;1.52;;;15.60;99.90;;;;;;5111850;28;20044;-89
2022/05/24 11:10:51;;;;;;;1.80;1.33;;;16.00;99.90;;;;;;5094905;28;20039;-88
2022/05/24 11:13:51;;;;;;;4.95;1.30;;;16.30;99.90;;;;;;5070940;28;20035;-92
2022/05/24 11:16:28;;;;;;;4.72;1.35;;;16.50;99.90;;;;;;5090504;28;20492;-89
2022/05/24 11:18:55;;;;;;;2.53;1.55;;;16.60;99.90;;;;;;5100913;28;20135;-90
2022/05/24 11:21:38;;;;;;;3.58;1.25;;;16.50;99.90;;;;;;5097846;28;20051;-89
2022/05/24 11:24:17;;;;;;;2.90;1.00;;;16.40;99.90;;;;;;5112270;28;20047;-88
2022/05/24 11:26:52;;;;;;;2.00;0.98;;;16.20;99.90;;;;;;5094040;28;20047;-88
2022/05/24 11:29:43;;;;;;;4.47;1.13;;;15.90;99.90;;;;;;5094276;28;20039;-89
2022/05/24 11:32:11;;;;;;;1.13;0.90;;;15.70;99.90;;;;;;5110929;28;20074;-88
2022/05/24 11:34:56;;;;;;;4.10;1.52;;;15.40;99.90;;;;;;5094001;28;20043;-87
2022/05/24 11:37:35;;;;;;;8.43;1.75;;;15.10;99.90;;;;;;5094857;28;20160;-87
2022/05/24 11:40:30;;;;;;;2.00;1.20;;;14.90;99.90;;;;;;5110992;28;20126;-88
2022/05/24 11:43:06;;;;;;;3.72;1.20;;;14.70;99.90;;;;;;5112136;28;20043;-88
2022/05/24 11:45:32;;;;;;;2.28;1.08;;;14.80;99.90;;;;;;5097030;28;20523;-88
2022/05/24 11:48:07;;;;;;;3.40;1.17;;;16.10;99.90;;;;;;5114266;28;20081;-88
2022/05/24 11:50:54;;;;;;;1.48;0.70;;;15.40;99.90;;;;;;5115413;28;20097;-88
2022/05/24 11:53:40;;;;;;;1.27;1.00;;;15.60;99.90;;;;;;5096364;28;20109;-88
2022/05/24 11:56:09;;;;;;;1.08;0.93;;;15.90;99.90;;;;;;5079270;28;20624;-88
2022/05/24 11:58:35;;;;;;;0.85;0.70;;;16.20;99.90;;;;;;5113903;28;20618;-88
2022/05/24 12:01:15;;;;;;;1.00;0.45;;;16.50;99.90;;;;;;5115821;28;20105;-89
2022/05/24 12:10:11;;;;;;;2.35;0.68;;;16.50;99.90;;;;;;5127872;28;20094;-88
2022/05/24 12:13:03;;;;;;;2.92;0.65;;;16.10;99.90;;;;;;5099472;28;20495;-88
2022/05/24 12:15:33;;;;;;;3.85;0.40;;;15.70;99.90;;;;;;5097149;28;20058;-87
2022/05/24 12:17:58;;;;;;;4.18;0.50;;;15.40;99.90;;;;;;5096514;28;20048;-87
2022/05/24 12:20:33;;;;;;;7.93;0.82;;;15.20;99.90;;;;;;5112442;28;20040;-89
2022/05/24 12:23:32;;;;;;;1.55;0.40;;;15.20;99.90;;;;;;5096168;28;20043;-87
2022/05/24 12:26:01;;;;;;;2.95;1.15;;;15.30;99.90;;;;;;5096929;28;20400;-87
2022/05/24 12:28:40;;;;;;;2.67;0.77;;;15.30;99.90;;;;;;5095406;28;20504;-87
2022/05/24 12:31:18;;;;;;;1.27;0.60;;;15.30;99.90;;;;;;5115075;28;20040;-88
2022/05/24 12:33:57;;;;;;;1.30;0.50;;;15.40;99.90;;;;;;5112313;28;20297;-88
2022/05/24 12:36:41;;;;;;;6.60;0.77;;;15.70;99.90;;;;;;5091797;28;20105;-88
2022/05/24 12:39:06;;;;;;;1.50;0.63;;;15.90;99.90;;;;;;5108782;28;20043;-88
2022/05/24 12:41:37;;;;;;;7.95;0.50;;;15.90;99.90;;;;;;5109583;28;20036;-87
2022/05/24 12:44:25;;;;;;;3.40;0.60;;;16.40;99.90;;;;;;5091747;28;20043;-88
2022/05/24 12:46:58;;;;;;;4.72;0.55;;;15.70;99.90;;;;;;5108610;28;20031;-90
2022/05/24 12:49:25;;;;;;;2.40;0.52;;;15.70;99.90;;;;;;5091387;28;20082;-90
2022/05/24 12:52:13;;;;;;;6.40;0.82;;;16.60;99.90;;;;;;5093410;28;20181;-94
2022/05/24 12:54:46;;;;;;;3.17;0.80;;;16.10;99.90;;;;;;5092088;28;20529;-90
2022/05/24 12:57:22;;;;;;;1.98;0.57;;;16.60;99.90;;;;;;5091974;28;20089;-89
2022/05/24 13:00:00;;;;;;;2.15;0.40;;;16.90;99.90;;;;;;5092492;28;20059;-88
2022/05/24 13:02:37;;;;;;;3.83;0.60;;;17.10;99.90;;;;;;5112900;28;20100;-92
2022/05/24 13:05:13;;;;;;;4.30;0.65;;;16.80;99.90;;;;;;5115166;28;20046;-91
2022/05/24 13:07:40;;;;;;;1.85;0.32;;;16.70;99.90;;;;;;5095500;28;20101;-91
2022/05/24 13:10:21;;;;;;;3.97;0.73;;;16.50;99.90;;;;;;5092154;28;20051;-92
2022/05/24 13:12:50;;;;;;;2.40;0.38;;;16.30;99.90;;;;;;5091901;28;20048;-90
2022/05/24 13:15:20;;;;;;;3.75;0.70;;;16.20;99.90;;;;;;5088895;28;20043;-87
2022/05/24 13:17:51;;;;;;;2.55;1.13;;;15.90;99.90;;;;;;5107674;28;20043;-92
2022/05/24 13:20:17;;;;;;;11.52;0.60;;;15.80;99.90;;;;;;5090146;28;20144;-89
2022/05/24 13:23:24;;;;;;;3.17;0.60;;;15.90;99.90;;;;;;5090978;28;20505;-89
2022/05/24 13:26:15;;;;;;;1.58;0.45;;;16.20;99.90;;;;;;5089433;28;20051;-89
2022/05/24 13:28:59;;;;;;;2.88;0.40;;;16.40;99.90;;;;;;5102124;28;20056;-90
2022/05/24 13:34:47;;;;;;;1.90;0.30;;;17.10;99.90;;;;;;5108595;28;20046;-93
2022/05/24 13:37:15;;;;;;;1.98;0.50;;;17.40;99.90;;;;;;5048075;28;20135;-94
2022/05/24 13:39:44;;;;;;;4.60;0.68;;;17.40;99.90;;;;;;5058728;28;20135;-95
2022/05/24 13:42:19;;;;;;;1.63;0.30;;;17.40;99.90;;;;;;5091457;28;20411;-92
2022/05/24 13:45:16;;;;;;;0.60;0.20;;;17.30;99.90;;;;;;5098045;28;20075;-90
2022/05/24 13:47:50;;;;;;;2.72;0.40;;;17.20;99.90;;;;;;5098833;28;20716;-93
2022/05/24 13:50:37;;;;;;;2.88;0.50;;;17.10;99.90;;;;;;5090458;28;20066;-89
2022/05/24 13:53:37;;;;;;;2.45;0.43;;;17.00;99.90;;;;;;5091049;28;20476;-92
2022/05/24 13:56:21;;;;;;;1.17;0.45;;;16.90;99.90;;;;;;5090955;28;20073;-90
2022/05/24 13:59:08;;;;;;;6.10;0.60;;;16.90;99.90;;;;;;5105859;28;20501;-90
2022/05/24 14:01:37;;;;;;;3.55;0.68;;;16.80;99.90;;;;;;5106457;28;20496;-89
2022/05/24 14:04:27;;;;;;;1.23;0.45;;;17.00;99.90;;;;;;5106719;28;20071;-90
2022/05/24 14:06:56;;;;;;;2.50;0.60;;;17.20;99.90;;;;;;5107436;28;20092;-92
2022/05/24 14:09:24;;;;;;;2.67;0.68;;;17.60;99.90;;;;;;5108978;28;20044;-95